x

Point Arguello, Ca (ptgc1) Weather Station

6:00pm - Wed 30th Jul 2014 All times are PDT. -7 hours from GMT.

  • Wind
    28mph, 30mph gusts
  • Air Temp 61°f
  • Sea Pressure 1013.8mb
  • Point Arguello, Ca
  • Point Arguello, Ca

More Historic Weather Station data

Upgrade to MSW Pro to gain access to the past 30 days of data for over 8000 Wavebouys and Weather Stations around the globe.

Join Pro

Comparision Forecast

View Surf forecast
   
Wed 07/30 6:00pm 28 30 mph 1013.8mb 61f
5:00pm 31 33 mph 1013.7mb 61f
4:00pm 29 31 mph 1014.5mb 61f
3:00pm 24 26 mph 1015.3mb 61f
2:00pm 23 24 mph 1015.8mb 60f
1:00pm 28 30 mph 1015.6mb 61f
12:00pm 25 26 mph 1015.8mb 60f
11:00am 21 22 mph 1016.2mb 59f
10:00am 25 26 mph 1015.7mb 58f
9:00am 23 24 mph 1015.5mb 59f
8:00am 29 30 mph 1014.9mb 59f
7:00am 29 31 mph 1014.5mb 59f
6:00am 29 31 mph 1014.7mb 59f
5:00am 29 30 mph 1014.4mb 59f
4:00am 30 32 mph 1014.1mb 60f
3:00am 28 29 mph 1014.5mb 59f
2:00am 26 28 mph 1014.8mb 60f
1:00am 25 26 mph 1015.4mb 60f
12:00am 25 26 mph 1015.5mb 61f
Tue 07/29 11:00pm 28 29 mph 1015.3mb 62f
10:00pm 25 28 mph 1015.5mb 62f
9:00pm 25 28 mph 1015.4mb 62f
8:00pm 26 30 mph 1015.1mb 62f
7:00pm 26 29 mph 1015.1mb 63f
6:00pm 28 32 mph 1014.9mb 62f
5:00pm 29 30 mph 1015.1mb 62f
4:00pm 28 30 mph 1015.8mb 61f
3:00pm 26 28 mph 1016.5mb 62f
2:00pm 21 22 mph 1017.4mb 61f
1:00pm 18 21 mph 1017.7mb 61f
12:00pm 16
mph
1018.1mb 60f
11:00am 18
mph
1018.3mb 60f
10:00am 23
mph
1017.8mb 60f
9:00am 18 20 mph 1017.9mb 60f
8:00am 15 16 mph 1017.9mb 60f
7:00am 15 16 mph 1017.3mb 59f
6:00am 10 11 mph 1017mb 60f
5:00am 24
mph
1015.9mb 59f
4:00am 25 28 mph 1015.8mb 61f
3:00am 26 28 mph 1015.9mb 60f
2:00am 26 28 mph 1016.2mb 61f
1:00am 26 29 mph 1016.5mb 61f
12:00am 28 29 mph 1016.6mb 61f
Mon 07/28 11:00pm 26 28 mph 1017mb 63f
10:00pm 20
mph
1017.9mb 63f
9:00pm 21 22 mph 1017.2mb 63f
8:00pm 17 20 mph 1017mb 63f
7:00pm 14 15 mph 1017.1mb 62f
6:00pm 13 14 mph 1017.1mb 62f
5:00pm 14
mph
1017.3mb 62f
4:00pm 14
mph
1017.6mb 62f
3:00pm 14 15 mph 1017.8mb 62f
2:00pm 11
mph
1018.3mb 61f
1:00pm 10 11 mph 1018.9mb 61f
12:00pm 8
mph
1019.2mb 61f
11:00am 10 11 mph 1018.9mb 61f
10:00am 8 9 mph 1018.9mb 61f
9:00am 9
mph
1018.3mb 61f
8:00am 8
mph
1017.8mb 61f
7:00am 9 10 mph 1017.4mb 61f
6:00am 6 7 mph 1017mb 61f
5:00am 7 9 mph 1016.7mb 61f
4:00am 13 14 mph 1016mb 61f
3:00am 20 22 mph 1015.4mb 61f
2:00am 20 21 mph 1015.4mb 61f
1:00am 21 23 mph 1015.2mb 60f
12:00am 25 28 mph 1015.1mb 60f
Sun 07/27 11:00pm 28 30 mph 1015mb 60f
10:00pm 30 31 mph 1015.1mb 59f
9:00pm 24 26 mph 1014.8mb 60f
8:00pm 23 24 mph 1014.6mb 60f
7:00pm 20 21 mph 1015.1mb 61f
6:00pm 9
mph
1015.8mb 62f
5:00pm 5 6 mph 1016.4mb 62f
4:00pm 3 6 mph 1016.6mb 63f
3:00pm 5
mph
1016.7mb 63f
2:00pm 5
mph
1016.6mb 62f
1:00pm 3
mph
1016.8mb 61f
12:00pm 5
mph
1016.6mb 60f
11:00am 6 7 mph 1016.7mb 59f
10:00am 8
mph
1016.6mb 59f
9:00am 10 11 mph 1016.3mb 59f
8:00am 16 17 mph 1015.6mb 58f
7:00am 11 14 mph 1015.1mb 57f
6:00am 10 11 mph 1014.9mb 57f
5:00am 7 9 mph 1014.9mb 58f
4:00am 8 9 mph 1015mb 58f
3:00am 10 11 mph 1014.8mb 57f